sensor_id;sensor_type;location;lat;lon;timestamp;P1;P2;P0
78063;PMS5003;67429;51.596;-3.264;2024-03-07T00:00:23;38;36;
78063;PMS5003;67429;51.596;-3.264;2024-03-07T00:02:50;34;34;
78063;PMS5003;67429;51.596;-3.264;2024-03-07T00:05:15;44;42;
78063;PMS5003;67429;51.596;-3.264;2024-03-07T00:07:40;36;35;
78063;PMS5003;67429;51.596;-3.264;2024-03-07T00:10:06;40;39;
78063;PMS5003;67429;51.596;-3.264;2024-03-07T00:12:31;42;39;
78063;PMS5003;67429;51.596;-3.264;2024-03-07T00:14:57;39;36;
78063;PMS5003;67429;51.596;-3.264;2024-03-07T00:17:22;35;34;
78063;PMS5003;67429;51.596;-3.264;2024-03-07T00:19:47;39;37;
78063;PMS5003;67429;51.596;-3.264;2024-03-07T00:22:13;41;41;
78063;PMS5003;67429;51.596;-3.264;2024-03-07T00:24:38;45;45;
78063;PMS5003;67429;51.596;-3.264;2024-03-07T00:27:04;39;37;
78063;PMS5003;67429;51.596;-3.264;2024-03-07T00:29:34;46;42;
78063;PMS5003;67429;51.596;-3.264;2024-03-07T00:31:55;39;38;
78063;PMS5003;67429;51.596;-3.264;2024-03-07T00:34:20;48;46;
78063;PMS5003;67429;51.596;-3.264;2024-03-07T00:36:46;39;38;
78063;PMS5003;67429;51.596;-3.264;2024-03-07T00:39:11;37;37;
78063;PMS5003;67429;51.596;-3.264;2024-03-07T00:41:37;48;45;
78063;PMS5003;67429;51.596;-3.264;2024-03-07T00:44:02;45;42;
78063;PMS5003;67429;51.596;-3.264;2024-03-07T00:46:28;47;46;
78063;PMS5003;67429;51.596;-3.264;2024-03-07T00:48:53;47;45;
78063;PMS5003;67429;51.596;-3.264;2024-03-07T00:53:44;66;59;
78063;PMS5003;67429;51.596;-3.264;2024-03-07T00:56:14;61;58;
78063;PMS5003;67429;51.596;-3.264;2024-03-07T00:58:35;57;56;
78063;PMS5003;67429;51.596;-3.264;2024-03-07T01:01:00;64;59;
78063;PMS5003;67429;51.596;-3.264;2024-03-07T01:03:25;59;56;
78063;PMS5003;67429;51.596;-3.264;2024-03-07T01:05:51;66;58;
78063;PMS5003;67429;51.596;-3.264;2024-03-07T01:08:17;67;64;
78063;PMS5003;67429;51.596;-3.264;2024-03-07T01:10:43;69;66;
78063;PMS5003;67429;51.596;-3.264;2024-03-07T01:13:08;66;65;
78063;PMS5003;67429;51.596;-3.264;2024-03-07T01:15:34;65;62;
78063;PMS5003;67429;51.596;-3.264;2024-03-07T01:18:00;86;83;
78063;PMS5003;67429;51.596;-3.264;2024-03-07T01:20:25;76;73;
78063;PMS5003;67429;51.596;-3.264;2024-03-07T01:22:51;81;75;
78063;PMS5003;67429;51.596;-3.264;2024-03-07T01:25:17;60;58;
78063;PMS5003;67429;51.596;-3.264;2024-03-07T01:27:42;68;63;
78063;PMS5003;67429;51.596;-3.264;2024-03-07T01:30:08;61;56;
78063;PMS5003;67429;51.596;-3.264;2024-03-07T01:32:33;61;58;
78063;PMS5003;67429;51.596;-3.264;2024-03-07T01:34:58;72;67;
78063;PMS5003;67429;51.596;-3.264;2024-03-07T01:37:24;64;57;
78063;PMS5003;67429;51.596;-3.264;2024-03-07T01:39:49;55;52;
78063;PMS5003;67429;51.596;-3.264;2024-03-07T01:42:15;63;58;
78063;PMS5003;67429;51.596;-3.264;2024-03-07T01:44:40;61;57;
78063;PMS5003;67429;51.596;-3.264;2024-03-07T01:47:05;61;56;
78063;PMS5003;67429;51.596;-3.264;2024-03-07T01:49:30;55;50;
78063;PMS5003;67429;51.596;-3.264;2024-03-07T01:51:56;63;61;
78063;PMS5003;67429;51.596;-3.264;2024-03-07T01:54:21;72;68;
78063;PMS5003;67429;51.596;-3.264;2024-03-07T01:56:47;68;63;
78063;PMS5003;67429;51.596;-3.264;2024-03-07T01:59:12;71;69;
78063;PMS5003;67429;51.596;-3.264;2024-03-07T02:01:38;78;72;
78063;PMS5003;67429;51.596;-3.264;2024-03-07T02:04:03;59;56;
78063;PMS5003;67429;51.596;-3.264;2024-03-07T02:06:29;54;51;
78063;PMS5003;67429;51.596;-3.264;2024-03-07T02:08:54;51;48;
78063;PMS5003;67429;51.596;-3.264;2024-03-07T02:11:20;53;47;
78063;PMS5003;67429;51.596;-3.264;2024-03-07T02:13:45;43;41;
78063;PMS5003;67429;51.596;-3.264;2024-03-07T02:16:11;53;49;
78063;PMS5003;67429;51.596;-3.264;2024-03-07T02:18:36;43;42;
78063;PMS5003;67429;51.596;-3.264;2024-03-07T02:21:05;43;41;
78063;PMS5003;67429;51.596;-3.264;2024-03-07T02:23:27;38;37;
78063;PMS5003;67429;51.596;-3.264;2024-03-07T02:25:52;48;44;
78063;PMS5003;67429;51.596;-3.264;2024-03-07T02:28:18;38;36;
78063;PMS5003;67429;51.596;-3.264;2024-03-07T02:30:44;39;36;
78063;PMS5003;67429;51.596;-3.264;2024-03-07T02:33:09;36;35;
78063;PMS5003;67429;51.596;-3.264;2024-03-07T02:35:35;41;38;
78063;PMS5003;67429;51.596;-3.264;2024-03-07T02:38:00;37;36;
78063;PMS5003;67429;51.596;-3.264;2024-03-07T02:40:26;31;31;
78063;PMS5003;67429;51.596;-3.264;2024-03-07T02:42:51;38;37;
78063;PMS5003;67429;51.596;-3.264;2024-03-07T02:45:17;43;39;
78063;PMS5003;67429;51.596;-3.264;2024-03-07T02:47:42;31;30;
78063;PMS5003;67429;51.596;-3.264;2024-03-07T02:50:08;35;35;
78063;PMS5003;67429;51.596;-3.264;2024-03-07T02:52:33;40;38;
78063;PMS5003;67429;51.596;-3.264;2024-03-07T02:54:58;36;35;
78063;PMS5003;67429;51.596;-3.264;2024-03-07T02:57:24;31;29;
78063;PMS5003;67429;51.596;-3.264;2024-03-07T02:59:50;37;35;
78063;PMS5003;67429;51.596;-3.264;2024-03-07T03:02:15;35;33;
78063;PMS5003;67429;51.596;-3.264;2024-03-07T03:04:40;35;35;
78063;PMS5003;67429;51.596;-3.264;2024-03-07T03:07:05;36;33;
78063;PMS5003;67429;51.596;-3.264;2024-03-07T03:09:31;36;33;
78063;PMS5003;67429;51.596;-3.264;2024-03-07T03:11:57;40;39;
78063;PMS5003;67429;51.596;-3.264;2024-03-07T03:14:22;42;37;
78063;PMS5003;67429;51.596;-3.264;2024-03-07T03:16:47;34;34;
78063;PMS5003;67429;51.596;-3.264;2024-03-07T03:19:13;34;33;
78063;PMS5003;67429;51.596;-3.264;2024-03-07T03:21:38;40;38;
78063;PMS5003;67429;51.596;-3.264;2024-03-07T03:24:04;40;36;
78063;PMS5003;67429;51.596;-3.264;2024-03-07T03:26:29;47;41;
78063;PMS5003;67429;51.596;-3.264;2024-03-07T03:28:54;45;44;
78063;PMS5003;67429;51.596;-3.264;2024-03-07T03:31:19;43;39;
78063;PMS5003;67429;51.596;-3.264;2024-03-07T03:33:45;44;39;
78063;PMS5003;67429;51.596;-3.264;2024-03-07T03:36:10;60;53;
78063;PMS5003;67429;51.596;-3.264;2024-03-07T03:38:35;49;49;
78063;PMS5003;67429;51.596;-3.264;2024-03-07T03:41:01;52;50;
78063;PMS5003;67429;51.596;-3.264;2024-03-07T03:43:27;53;49;
78063;PMS5003;67429;51.596;-3.264;2024-03-07T03:45:52;47;44;
78063;PMS5003;67429;51.596;-3.264;2024-03-07T03:48:17;60;55;
78063;PMS5003;67429;51.596;-3.264;2024-03-07T03:50:42;53;46;
78063;PMS5003;67429;51.596;-3.264;2024-03-07T03:53:07;59;52;
78063;PMS5003;67429;51.596;-3.264;2024-03-07T03:55:33;51;47;
78063;PMS5003;67429;51.596;-3.264;2024-03-07T03:57:58;52;49;
78063;PMS5003;67429;51.596;-3.264;2024-03-07T04:00:24;58;56;
78063;PMS5003;67429;51.596;-3.264;2024-03-07T04:02:49;53;50;
78063;PMS5003;67429;51.596;-3.264;2024-03-07T04:05:15;53;49;
78063;PMS5003;67429;51.596;-3.264;2024-03-07T04:07:40;54;53;
78063;PMS5003;67429;51.596;-3.264;2024-03-07T04:10:06;47;45;
78063;PMS5003;67429;51.596;-3.264;2024-03-07T04:12:32;57;49;
78063;PMS5003;67429;51.596;-3.264;2024-03-07T04:14:57;55;49;
78063;PMS5003;67429;51.596;-3.264;2024-03-07T04:17:22;48;45;
78063;PMS5003;67429;51.596;-3.264;2024-03-07T04:19:48;44;43;
78063;PMS5003;67429;51.596;-3.264;2024-03-07T04:22:14;46;44;
78063;PMS5003;67429;51.596;-3.264;2024-03-07T04:24:40;48;47;
78063;PMS5003;67429;51.596;-3.264;2024-03-07T04:27:06;49;47;
78063;PMS5003;67429;51.596;-3.264;2024-03-07T04:29:31;52;43;
78063;PMS5003;67429;51.596;-3.264;2024-03-07T04:31:57;45;42;
78063;PMS5003;67429;51.596;-3.264;2024-03-07T04:34:22;51;48;
78063;PMS5003;67429;51.596;-3.264;2024-03-07T04:36:48;48;44;
78063;PMS5003;67429;51.596;-3.264;2024-03-07T04:39:13;49;47;
78063;PMS5003;67429;51.596;-3.264;2024-03-07T04:41:39;59;49;
78063;PMS5003;67429;51.596;-3.264;2024-03-07T04:44:05;46;43;
78063;PMS5003;67429;51.596;-3.264;2024-03-07T04:46:30;53;46;
78063;PMS5003;67429;51.596;-3.264;2024-03-07T04:48:56;48;43;
78063;PMS5003;67429;51.596;-3.264;2024-03-07T04:51:21;56;51;
78063;PMS5003;67429;51.596;-3.264;2024-03-07T04:53:46;45;44;
78063;PMS5003;67429;51.596;-3.264;2024-03-07T04:56:12;44;42;
78063;PMS5003;67429;51.596;-3.264;2024-03-07T04:58:37;47;46;
78063;PMS5003;67429;51.596;-3.264;2024-03-07T05:01:03;52;46;
78063;PMS5003;67429;51.596;-3.264;2024-03-07T05:03:29;46;42;
78063;PMS5003;67429;51.596;-3.264;2024-03-07T05:05:54;53;50;
78063;PMS5003;67429;51.596;-3.264;2024-03-07T05:08:20;45;42;
78063;PMS5003;67429;51.596;-3.264;2024-03-07T05:10:45;50;45;
78063;PMS5003;67429;51.596;-3.264;2024-03-07T05:13:11;42;37;
78063;PMS5003;67429;51.596;-3.264;2024-03-07T05:15:37;50;42;
78063;PMS5003;67429;51.596;-3.264;2024-03-07T05:18:03;52;48;
78063;PMS5003;67429;51.596;-3.264;2024-03-07T05:20:28;51;48;
78063;PMS5003;67429;51.596;-3.264;2024-03-07T05:22:54;48;44;
78063;PMS5003;67429;51.596;-3.264;2024-03-07T05:25:20;49;48;
78063;PMS5003;67429;51.596;-3.264;2024-03-07T05:27:45;52;47;
78063;PMS5003;67429;51.596;-3.264;2024-03-07T05:30:10;44;43;
78063;PMS5003;67429;51.596;-3.264;2024-03-07T05:32:36;50;47;
78063;PMS5003;67429;51.596;-3.264;2024-03-07T05:35:02;43;38;
78063;PMS5003;67429;51.596;-3.264;2024-03-07T05:37:27;46;46;
78063;PMS5003;67429;51.596;-3.264;2024-03-07T05:39:52;42;39;
78063;PMS5003;67429;51.596;-3.264;2024-03-07T05:42:18;43;41;
78063;PMS5003;67429;51.596;-3.264;2024-03-07T05:44:43;43;41;
78063;PMS5003;67429;51.596;-3.264;2024-03-07T05:47:08;44;42;
78063;PMS5003;67429;51.596;-3.264;2024-03-07T05:49:34;44;43;
78063;PMS5003;67429;51.596;-3.264;2024-03-07T05:51:59;52;48;
78063;PMS5003;67429;51.596;-3.264;2024-03-07T05:54:25;53;51;
78063;PMS5003;67429;51.596;-3.264;2024-03-07T05:56:51;49;48;
78063;PMS5003;67429;51.596;-3.264;2024-03-07T05:59:16;46;40;
78063;PMS5003;67429;51.596;-3.264;2024-03-07T06:01:41;49;44;
78063;PMS5003;67429;51.596;-3.264;2024-03-07T06:04:07;42;40;
78063;PMS5003;67429;51.596;-3.264;2024-03-07T06:06:33;43;41;
78063;PMS5003;67429;51.596;-3.264;2024-03-07T06:08:58;47;43;
78063;PMS5003;67429;51.596;-3.264;2024-03-07T06:11:23;41;37;
78063;PMS5003;67429;51.596;-3.264;2024-03-07T06:13:49;48;44;
78063;PMS5003;67429;51.596;-3.264;2024-03-07T06:16:15;45;42;
78063;PMS5003;67429;51.596;-3.264;2024-03-07T06:18:41;43;40;
78063;PMS5003;67429;51.596;-3.264;2024-03-07T06:21:06;44;40;
78063;PMS5003;67429;51.596;-3.264;2024-03-07T06:23:32;44;41;
78063;PMS5003;67429;51.596;-3.264;2024-03-07T06:25:57;42;40;
78063;PMS5003;67429;51.596;-3.264;2024-03-07T06:28:23;40;38;
78063;PMS5003;67429;51.596;-3.264;2024-03-07T06:30:48;44;38;
78063;PMS5003;67429;51.596;-3.264;2024-03-07T06:33:14;49;47;
78063;PMS5003;67429;51.596;-3.264;2024-03-07T06:35:39;50;41;
78063;PMS5003;67429;51.596;-3.264;2024-03-07T06:38:04;48;44;
78063;PMS5003;67429;51.596;-3.264;2024-03-07T06:40:29;46;41;
78063;PMS5003;67429;51.596;-3.264;2024-03-07T06:42:55;54;50;
78063;PMS5003;67429;51.596;-3.264;2024-03-07T06:45:21;46;42;
78063;PMS5003;67429;51.596;-3.264;2024-03-07T06:47:47;45;40;
78063;PMS5003;67429;51.596;-3.264;2024-03-07T06:50:12;51;45;
78063;PMS5003;67429;51.596;-3.264;2024-03-07T06:52:38;39;37;
78063;PMS5003;67429;51.596;-3.264;2024-03-07T06:55:03;52;45;
78063;PMS5003;67429;51.596;-3.264;2024-03-07T06:57:28;40;39;
78063;PMS5003;67429;51.596;-3.264;2024-03-07T06:59:54;44;43;
78063;PMS5003;67429;51.596;-3.264;2024-03-07T07:02:20;48;44;
78063;PMS5003;67429;51.596;-3.264;2024-03-07T07:04:45;42;39;
78063;PMS5003;67429;51.596;-3.264;2024-03-07T07:07:11;53;49;
78063;PMS5003;67429;51.596;-3.264;2024-03-07T07:09:36;54;47;
78063;PMS5003;67429;51.596;-3.264;2024-03-07T07:12:01;52;46;
78063;PMS5003;67429;51.596;-3.264;2024-03-07T07:14:27;47;44;
78063;PMS5003;67429;51.596;-3.264;2024-03-07T07:16:52;49;46;
78063;PMS5003;67429;51.596;-3.264;2024-03-07T07:19:17;56;51;
78063;PMS5003;67429;51.596;-3.264;2024-03-07T07:21:43;49;47;
78063;PMS5003;67429;51.596;-3.264;2024-03-07T07:24:08;43;40;
78063;PMS5003;67429;51.596;-3.264;2024-03-07T07:26:33;49;48;
78063;PMS5003;67429;51.596;-3.264;2024-03-07T07:28:59;54;52;
78063;PMS5003;67429;51.596;-3.264;2024-03-07T07:31:25;54;49;
78063;PMS5003;67429;51.596;-3.264;2024-03-07T07:33:49;52;51;
78063;PMS5003;67429;51.596;-3.264;2024-03-07T07:36:15;43;42;
78063;PMS5003;67429;51.596;-3.264;2024-03-07T07:38:40;54;51;
78063;PMS5003;67429;51.596;-3.264;2024-03-07T07:41:06;50;45;
78063;PMS5003;67429;51.596;-3.264;2024-03-07T07:43:32;57;48;
78063;PMS5003;67429;51.596;-3.264;2024-03-07T07:45:57;47;45;
78063;PMS5003;67429;51.596;-3.264;2024-03-07T07:48:23;46;44;
78063;PMS5003;67429;51.596;-3.264;2024-03-07T07:50:48;46;43;
78063;PMS5003;67429;51.596;-3.264;2024-03-07T07:53:14;55;52;
78063;PMS5003;67429;51.596;-3.264;2024-03-07T07:55:39;49;47;
78063;PMS5003;67429;51.596;-3.264;2024-03-07T07:58:04;54;49;
78063;PMS5003;67429;51.596;-3.264;2024-03-07T08:00:30;57;53;
78063;PMS5003;67429;51.596;-3.264;2024-03-07T08:02:56;53;49;
78063;PMS5003;67429;51.596;-3.264;2024-03-07T08:05:21;53;50;
78063;PMS5003;67429;51.596;-3.264;2024-03-07T08:07:46;64;56;
78063;PMS5003;67429;51.596;-3.264;2024-03-07T08:10:12;55;48;
78063;PMS5003;67429;51.596;-3.264;2024-03-07T08:12:37;50;45;
78063;PMS5003;67429;51.596;-3.264;2024-03-07T08:15:02;55;53;
78063;PMS5003;67429;51.596;-3.264;2024-03-07T08:17:28;57;52;
78063;PMS5003;67429;51.596;-3.264;2024-03-07T08:19:54;49;44;
78063;PMS5003;67429;51.596;-3.264;2024-03-07T08:22:19;53;46;
78063;PMS5003;67429;51.596;-3.264;2024-03-07T08:24:44;53;44;
78063;PMS5003;67429;51.596;-3.264;2024-03-07T08:27:10;49;46;
78063;PMS5003;67429;51.596;-3.264;2024-03-07T08:29:36;57;47;
78063;PMS5003;67429;51.596;-3.264;2024-03-07T08:32:02;45;43;
78063;PMS5003;67429;51.596;-3.264;2024-03-07T08:34:27;67;57;
78063;PMS5003;67429;51.596;-3.264;2024-03-07T08:36:53;54;49;
78063;PMS5003;67429;51.596;-3.264;2024-03-07T08:39:19;52;47;
78063;PMS5003;67429;51.596;-3.264;2024-03-07T08:41:44;51;48;
78063;PMS5003;67429;51.596;-3.264;2024-03-07T08:44:10;52;47;
78063;PMS5003;67429;51.596;-3.264;2024-03-07T08:46:35;61;53;
78063;PMS5003;67429;51.596;-3.264;2024-03-07T08:49:01;50;46;
78063;PMS5003;67429;51.596;-3.264;2024-03-07T08:51:26;41;40;
78063;PMS5003;67429;51.596;-3.264;2024-03-07T08:53:50;53;49;
78063;PMS5003;67429;51.596;-3.264;2024-03-07T08:56:16;47;42;
78063;PMS5003;67429;51.596;-3.264;2024-03-07T08:58:42;42;39;
78063;PMS5003;67429;51.596;-3.264;2024-03-07T09:01:07;41;39;
78063;PMS5003;67429;51.596;-3.264;2024-03-07T09:03:33;40;38;
78063;PMS5003;67429;51.596;-3.264;2024-03-07T09:05:58;50;41;
78063;PMS5003;67429;51.596;-3.264;2024-03-07T09:08:24;35;32;
78063;PMS5003;67429;51.596;-3.264;2024-03-07T09:10:50;41;36;
78063;PMS5003;67429;51.596;-3.264;2024-03-07T09:13:16;49;45;
78063;PMS5003;67429;51.596;-3.264;2024-03-07T09:15:41;38;37;
78063;PMS5003;67429;51.596;-3.264;2024-03-07T09:18:06;40;38;
78063;PMS5003;67429;51.596;-3.264;2024-03-07T09:20:31;43;39;
78063;PMS5003;67429;51.596;-3.264;2024-03-07T09:22:58;47;44;
78063;PMS5003;67429;51.596;-3.264;2024-03-07T09:25:23;44;40;
78063;PMS5003;67429;51.596;-3.264;2024-03-07T09:27:48;50;45;
78063;PMS5003;67429;51.596;-3.264;2024-03-07T09:30:13;48;36;
78063;PMS5003;67429;51.596;-3.264;2024-03-07T09:32:39;40;38;
78063;PMS5003;67429;51.596;-3.264;2024-03-07T09:35:04;44;41;
78063;PMS5003;67429;51.596;-3.264;2024-03-07T09:37:30;39;34;
78063;PMS5003;67429;51.596;-3.264;2024-03-07T09:39:56;44;36;
78063;PMS5003;67429;51.596;-3.264;2024-03-07T09:42:20;38;37;
78063;PMS5003;67429;51.596;-3.264;2024-03-07T09:44:46;39;35;
78063;PMS5003;67429;51.596;-3.264;2024-03-07T09:47:11;36;33;
78063;PMS5003;67429;51.596;-3.264;2024-03-07T09:49:36;39;34;
78063;PMS5003;67429;51.596;-3.264;2024-03-07T09:52:01;35;31;
78063;PMS5003;67429;51.596;-3.264;2024-03-07T09:54:27;44;41;
78063;PMS5003;67429;51.596;-3.264;2024-03-07T09:56:53;36;36;
78063;PMS5003;67429;51.596;-3.264;2024-03-07T09:59:19;42;41;
78063;PMS5003;67429;51.596;-3.264;2024-03-07T10:01:44;38;34;
78063;PMS5003;67429;51.596;-3.264;2024-03-07T10:04:12;45;40;
78063;PMS5003;67429;51.596;-3.264;2024-03-07T10:06:35;47;43;
78063;PMS5003;67429;51.596;-3.264;2024-03-07T10:09:01;47;43;
78063;PMS5003;67429;51.596;-3.264;2024-03-07T10:11:26;40;38;
78063;PMS5003;67429;51.596;-3.264;2024-03-07T10:13:52;48;40;
78063;PMS5003;67429;51.596;-3.264;2024-03-07T10:16:18;40;39;
78063;PMS5003;67429;51.596;-3.264;2024-03-07T10:18:43;43;40;
78063;PMS5003;67429;51.596;-3.264;2024-03-07T10:21:08;41;37;
78063;PMS5003;67429;51.596;-3.264;2024-03-07T10:23:34;42;40;
78063;PMS5003;67429;51.596;-3.264;2024-03-07T10:25:59;40;36;
78063;PMS5003;67429;51.596;-3.264;2024-03-07T10:28:26;35;33;
78063;PMS5003;67429;51.596;-3.264;2024-03-07T10:30:50;41;37;
78063;PMS5003;67429;51.596;-3.264;2024-03-07T10:33:16;43;40;
78063;PMS5003;67429;51.596;-3.264;2024-03-07T10:35:41;44;37;
78063;PMS5003;67429;51.596;-3.264;2024-03-07T10:38:07;44;39;
78063;PMS5003;67429;51.596;-3.264;2024-03-07T10:40:33;43;42;
78063;PMS5003;67429;51.596;-3.264;2024-03-07T10:42:58;39;35;
78063;PMS5003;67429;51.596;-3.264;2024-03-07T10:45:24;40;38;
78063;PMS5003;67429;51.596;-3.264;2024-03-07T10:47:52;34;32;
78063;PMS5003;67429;51.596;-3.264;2024-03-07T10:50:17;34;32;
78063;PMS5003;67429;51.596;-3.264;2024-03-07T10:52:42;34;32;
78063;PMS5003;67429;51.596;-3.264;2024-03-07T10:55:08;31;31;
78063;PMS5003;67429;51.596;-3.264;2024-03-07T10:57:31;31;31;
78063;PMS5003;67429;51.596;-3.264;2024-03-07T10:59:57;35;32;
78063;PMS5003;67429;51.596;-3.264;2024-03-07T11:02:27;38;36;
78063;PMS5003;67429;51.596;-3.264;2024-03-07T11:04:47;44;40;
78063;PMS5003;67429;51.596;-3.264;2024-03-07T11:07:12;34;31;
78063;PMS5003;67429;51.596;-3.264;2024-03-07T11:09:38;36;34;
78063;PMS5003;67429;51.596;-3.264;2024-03-07T11:12:03;34;33;
78063;PMS5003;67429;51.596;-3.264;2024-03-07T11:14:28;37;36;
78063;PMS5003;67429;51.596;-3.264;2024-03-07T11:16:54;36;34;
78063;PMS5003;67429;51.596;-3.264;2024-03-07T11:19:20;36;32;
78063;PMS5003;67429;51.596;-3.264;2024-03-07T11:21:45;36;32;
78063;PMS5003;67429;51.596;-3.264;2024-03-07T11:24:12;30;29;
78063;PMS5003;67429;51.596;-3.264;2024-03-07T11:26:35;33;30;
78063;PMS5003;67429;51.596;-3.264;2024-03-07T11:29:01;33;33;
78063;PMS5003;67429;51.596;-3.264;2024-03-07T11:31:26;26;25;
78063;PMS5003;67429;51.596;-3.264;2024-03-07T11:36:19;30;29;
78063;PMS5003;67429;51.596;-3.264;2024-03-07T11:38:44;32;31;
78063;PMS5003;67429;51.596;-3.264;2024-03-07T11:41:06;33;31;
78063;PMS5003;67429;51.596;-3.264;2024-03-07T11:43:32;39;33;
78063;PMS5003;67429;51.596;-3.264;2024-03-07T11:45:58;29;29;
78063;PMS5003;67429;51.596;-3.264;2024-03-07T11:48:23;29;28;
78063;PMS5003;67429;51.596;-3.264;2024-03-07T11:50:48;27;26;
78063;PMS5003;67429;51.596;-3.264;2024-03-07T11:53:13;36;30;
78063;PMS5003;67429;51.596;-3.264;2024-03-07T11:55:39;37;36;
78063;PMS5003;67429;51.596;-3.264;2024-03-07T11:58:04;30;29;
78063;PMS5003;67429;51.596;-3.264;2024-03-07T12:00:29;35;35;
78063;PMS5003;67429;51.596;-3.264;2024-03-07T12:02:54;41;38;
78063;PMS5003;67429;51.596;-3.264;2024-03-07T12:05:20;45;41;
78063;PMS5003;67429;51.596;-3.264;2024-03-07T12:07:46;38;34;
78063;PMS5003;67429;51.596;-3.264;2024-03-07T12:10:11;35;34;
78063;PMS5003;67429;51.596;-3.264;2024-03-07T12:12:37;37;34;
78063;PMS5003;67429;51.596;-3.264;2024-03-07T12:15:02;40;36;
78063;PMS5003;67429;51.596;-3.264;2024-03-07T12:17:28;33;33;
78063;PMS5003;67429;51.596;-3.264;2024-03-07T12:19:53;43;42;
78063;PMS5003;67429;51.596;-3.264;2024-03-07T12:22:19;46;41;
78063;PMS5003;67429;51.596;-3.264;2024-03-07T12:24:44;43;40;
78063;PMS5003;67429;51.596;-3.264;2024-03-07T12:27:11;47;43;
78063;PMS5003;67429;51.596;-3.264;2024-03-07T12:29:35;43;40;
78063;PMS5003;67429;51.596;-3.264;2024-03-07T12:32:01;41;40;
78063;PMS5003;67429;51.596;-3.264;2024-03-07T12:34:26;38;37;
78063;PMS5003;67429;51.596;-3.264;2024-03-07T12:36:51;46;40;
78063;PMS5003;67429;51.596;-3.264;2024-03-07T12:39:22;47;46;
78063;PMS5003;67429;51.596;-3.264;2024-03-07T12:41:41;46;43;
78063;PMS5003;67429;51.596;-3.264;2024-03-07T12:44:06;46;42;
78063;PMS5003;67429;51.596;-3.264;2024-03-07T12:46:31;41;40;
78063;PMS5003;67429;51.596;-3.264;2024-03-07T12:48:57;41;39;
78063;PMS5003;67429;51.596;-3.264;2024-03-07T12:51:22;46;40;
78063;PMS5003;67429;51.596;-3.264;2024-03-07T12:53:47;49;46;
78063;PMS5003;67429;51.596;-3.264;2024-03-07T12:56:12;43;40;
78063;PMS5003;67429;51.596;-3.264;2024-03-07T12:58:37;40;38;
78063;PMS5003;67429;51.596;-3.264;2024-03-07T13:01:02;46;43;
78063;PMS5003;67429;51.596;-3.264;2024-03-07T13:03:28;41;40;
78063;PMS5003;67429;51.596;-3.264;2024-03-07T13:05:53;54;50;
78063;PMS5003;67429;51.596;-3.264;2024-03-07T13:08:19;51;45;
78063;PMS5003;67429;51.596;-3.264;2024-03-07T13:10:44;44;40;
78063;PMS5003;67429;51.596;-3.264;2024-03-07T13:13:10;46;43;
78063;PMS5003;67429;51.596;-3.264;2024-03-07T13:15:35;39;38;
78063;PMS5003;67429;51.596;-3.264;2024-03-07T13:18:01;50;47;
78063;PMS5003;67429;51.596;-3.264;2024-03-07T13:20:27;45;42;
78063;PMS5003;67429;51.596;-3.264;2024-03-07T13:22:52;42;38;
78063;PMS5003;67429;51.596;-3.264;2024-03-07T13:25:20;40;38;
78063;PMS5003;67429;51.596;-3.264;2024-03-07T13:27:44;46;41;
78063;PMS5003;67429;51.596;-3.264;2024-03-07T13:30:08;37;36;
78063;PMS5003;67429;51.596;-3.264;2024-03-07T13:32:33;39;37;
78063;PMS5003;67429;51.596;-3.264;2024-03-07T13:34:58;36;32;
78063;PMS5003;67429;51.596;-3.264;2024-03-07T13:37:24;38;37;
78063;PMS5003;67429;51.596;-3.264;2024-03-07T13:39:49;36;36;
78063;PMS5003;67429;51.596;-3.264;2024-03-07T13:42:14;41;37;
78063;PMS5003;67429;51.596;-3.264;2024-03-07T13:44:40;44;41;
78063;PMS5003;67429;51.596;-3.264;2024-03-07T13:47:05;32;32;
78063;PMS5003;67429;51.596;-3.264;2024-03-07T13:49:31;39;38;
78063;PMS5003;67429;51.596;-3.264;2024-03-07T13:51:56;42;38;
78063;PMS5003;67429;51.596;-3.264;2024-03-07T13:54:22;42;40;
78063;PMS5003;67429;51.596;-3.264;2024-03-07T13:56:50;52;44;
78063;PMS5003;67429;51.596;-3.264;2024-03-07T13:59:22;52;46;
78063;PMS5003;67429;51.596;-3.264;2024-03-07T14:01:41;41;40;
78063;PMS5003;67429;51.596;-3.264;2024-03-07T14:06:31;48;45;
78063;PMS5003;67429;51.596;-3.264;2024-03-07T14:13:51;49;46;
78063;PMS5003;67429;51.596;-3.264;2024-03-07T14:23:34;68;65;
78063;PMS5003;67429;51.596;-3.264;2024-03-07T14:30:49;68;61;
78063;PMS5003;67429;51.596;-3.264;2024-03-07T14:33:11;54;53;
78063;PMS5003;67429;51.596;-3.264;2024-03-07T14:35:57;69;62;
78063;PMS5003;67429;51.596;-3.264;2024-03-07T14:38:04;73;70;
78063;PMS5003;67429;51.596;-3.264;2024-03-07T14:40:27;80;70;
78063;PMS5003;67429;51.596;-3.264;2024-03-07T14:42:53;62;53;
78063;PMS5003;67429;51.596;-3.264;2024-03-07T14:45:30;77;71;
78063;PMS5003;67429;51.596;-3.264;2024-03-07T14:47:43;84;77;
78063;PMS5003;67429;51.596;-3.264;2024-03-07T14:50:07;80;69;
78063;PMS5003;67429;51.596;-3.264;2024-03-07T14:52:33;75;68;
78063;PMS5003;67429;51.596;-3.264;2024-03-07T14:54:59;81;74;
78063;PMS5003;67429;51.596;-3.264;2024-03-07T14:57:23;76;69;
78063;PMS5003;67429;51.596;-3.264;2024-03-07T14:59:49;82;75;
78063;PMS5003;67429;51.596;-3.264;2024-03-07T15:02:15;84;77;
78063;PMS5003;67429;51.596;-3.264;2024-03-07T15:04:40;83;76;
78063;PMS5003;67429;51.596;-3.264;2024-03-07T15:07:06;84;78;
78063;PMS5003;67429;51.596;-3.264;2024-03-07T15:09:31;84;79;
78063;PMS5003;67429;51.596;-3.264;2024-03-07T15:11:57;79;74;
78063;PMS5003;67429;51.596;-3.264;2024-03-07T15:14:22;80;75;
78063;PMS5003;67429;51.596;-3.264;2024-03-07T15:16:47;77;70;
78063;PMS5003;67429;51.596;-3.264;2024-03-07T15:19:13;93;82;
78063;PMS5003;67429;51.596;-3.264;2024-03-07T15:21:39;82;77;
78063;PMS5003;67429;51.596;-3.264;2024-03-07T15:24:06;76;71;
78063;PMS5003;67429;51.596;-3.264;2024-03-07T15:26:31;93;86;
78063;PMS5003;67429;51.596;-3.264;2024-03-07T15:28:56;84;76;
78063;PMS5003;67429;51.596;-3.264;2024-03-07T15:31:21;86;82;
78063;PMS5003;67429;51.596;-3.264;2024-03-07T15:33:46;88;79;
78063;PMS5003;67429;51.596;-3.264;2024-03-07T15:36:12;77;73;
78063;PMS5003;67429;51.596;-3.264;2024-03-07T15:38:37;92;82;
78063;PMS5003;67429;51.596;-3.264;2024-03-07T15:41:03;84;77;
78063;PMS5003;67429;51.596;-3.264;2024-03-07T15:43:29;80;72;
78063;PMS5003;67429;51.596;-3.264;2024-03-07T15:45:54;88;80;
78063;PMS5003;67429;51.596;-3.264;2024-03-07T15:48:19;86;78;
78063;PMS5003;67429;51.596;-3.264;2024-03-07T15:50:45;84;81;
78063;PMS5003;67429;51.596;-3.264;2024-03-07T15:53:10;84;78;
78063;PMS5003;67429;51.596;-3.264;2024-03-07T15:55:35;77;70;
78063;PMS5003;67429;51.596;-3.264;2024-03-07T15:58:01;87;84;
78063;PMS5003;67429;51.596;-3.264;2024-03-07T16:00:26;94;86;
78063;PMS5003;67429;51.596;-3.264;2024-03-07T16:02:53;90;80;
78063;PMS5003;67429;51.596;-3.264;2024-03-07T16:05:17;94;86;
78063;PMS5003;67429;51.596;-3.264;2024-03-07T16:07:43;83;81;
78063;PMS5003;67429;51.596;-3.264;2024-03-07T16:10:09;85;80;
78063;PMS5003;67429;51.596;-3.264;2024-03-07T16:12:34;85;80;